sensor_id;sensor_type;location;lat;lon;timestamp;P1;durP1;ratioP1;P2;durP2;ratioP2
11582;SDS011;34299;50.820;4.548;2023-05-24T00:01:24;2.63;;;1.50;;
11582;SDS011;34299;50.820;4.548;2023-05-24T00:03:52;4.73;;;1.50;;
11582;SDS011;34299;50.820;4.548;2023-05-24T00:06:24;7.83;;;2.03;;
11582;SDS011;34299;50.820;4.548;2023-05-24T00:08:51;7.23;;;2.27;;
11582;SDS011;34299;50.820;4.548;2023-05-24T00:11:19;6.17;;;1.67;;
11582;SDS011;34299;50.820;4.548;2023-05-24T00:13:46;4.50;;;1.77;;
11582;SDS011;34299;50.820;4.548;2023-05-24T00:16:13;4.23;;;1.47;;
11582;SDS011;34299;50.820;4.548;2023-05-24T00:18:41;7.53;;;1.23;;
11582;SDS011;34299;50.820;4.548;2023-05-24T00:21:11;8.80;;;2.17;;
11582;SDS011;34299;50.820;4.548;2023-05-24T00:23:39;5.20;;;1.73;;
11582;SDS011;34299;50.820;4.548;2023-05-24T00:26:08;5.60;;;1.90;;
11582;SDS011;34299;50.820;4.548;2023-05-24T00:28:35;3.33;;;1.60;;
11582;SDS011;34299;50.820;4.548;2023-05-24T00:31:02;5.80;;;1.87;;
11582;SDS011;34299;50.820;4.548;2023-05-24T00:33:29;5.50;;;1.40;;
11582;SDS011;34299;50.820;4.548;2023-05-24T00:35:57;6.37;;;1.60;;
11582;SDS011;34299;50.820;4.548;2023-05-24T00:38:26;4.40;;;1.50;;
11582;SDS011;34299;50.820;4.548;2023-05-24T00:40:54;5.00;;;1.83;;
11582;SDS011;34299;50.820;4.548;2023-05-24T00:43:21;5.03;;;1.47;;
11582;SDS011;34299;50.820;4.548;2023-05-24T00:45:50;3.27;;;1.40;;
11582;SDS011;34299;50.820;4.548;2023-05-24T00:48:25;1.13;;;1.07;;
11582;SDS011;34299;50.820;4.548;2023-05-24T00:50:53;7.63;;;1.87;;
11582;SDS011;34299;50.820;4.548;2023-05-24T00:53:21;1.73;;;1.33;;
11582;SDS011;34299;50.820;4.548;2023-05-24T00:55:48;5.50;;;1.43;;
11582;SDS011;34299;50.820;4.548;2023-05-24T00:58:17;6.10;;;1.80;;
11582;SDS011;34299;50.820;4.548;2023-05-24T01:00:45;2.57;;;1.37;;
11582;SDS011;34299;50.820;4.548;2023-05-24T01:03:14;7.77;;;2.60;;
11582;SDS011;34299;50.820;4.548;2023-05-24T01:05:41;2.10;;;1.30;;
11582;SDS011;34299;50.820;4.548;2023-05-24T01:08:11;4.40;;;1.70;;
11582;SDS011;34299;50.820;4.548;2023-05-24T01:10:44;3.43;;;1.83;;
11582;SDS011;34299;50.820;4.548;2023-05-24T01:13:18;4.97;;;1.67;;
11582;SDS011;34299;50.820;4.548;2023-05-24T01:15:49;8.60;;;1.80;;
11582;SDS011;34299;50.820;4.548;2023-05-24T01:18:22;11.07;;;2.17;;
11582;SDS011;34299;50.820;4.548;2023-05-24T01:20:58;8.40;;;2.10;;
11582;SDS011;34299;50.820;4.548;2023-05-24T01:23:30;7.27;;;2.37;;
11582;SDS011;34299;50.820;4.548;2023-05-24T01:26:07;10.93;;;2.40;;
11582;SDS011;34299;50.820;4.548;2023-05-24T01:28:40;4.93;;;2.53;;
11582;SDS011;34299;50.820;4.548;2023-05-24T01:31:08;10.27;;;2.07;;
11582;SDS011;34299;50.820;4.548;2023-05-24T01:33:39;4.60;;;2.30;;
11582;SDS011;34299;50.820;4.548;2023-05-24T01:36:08;6.37;;;2.47;;
11582;SDS011;34299;50.820;4.548;2023-05-24T01:38:35;7.27;;;2.30;;
11582;SDS011;34299;50.820;4.548;2023-05-24T01:41:04;10.00;;;3.30;;
11582;SDS011;34299;50.820;4.548;2023-05-24T01:43:37;8.13;;;2.50;;
11582;SDS011;34299;50.820;4.548;2023-05-24T01:46:08;4.87;;;2.63;;
11582;SDS011;34299;50.820;4.548;2023-05-24T01:48:41;6.27;;;2.57;;
11582;SDS011;34299;50.820;4.548;2023-05-24T01:51:12;5.67;;;2.50;;
11582;SDS011;34299;50.820;4.548;2023-05-24T01:53:44;6.90;;;2.57;;
11582;SDS011;34299;50.820;4.548;2023-05-24T01:56:12;6.07;;;2.40;;
11582;SDS011;34299;50.820;4.548;2023-05-24T01:58:42;8.47;;;2.57;;
11582;SDS011;34299;50.820;4.548;2023-05-24T02:01:11;5.20;;;2.47;;
11582;SDS011;34299;50.820;4.548;2023-05-24T02:03:39;6.83;;;2.70;;
11582;SDS011;34299;50.820;4.548;2023-05-24T02:06:06;5.33;;;2.90;;
11582;SDS011;34299;50.820;4.548;2023-05-24T02:08:34;9.33;;;3.37;;
11582;SDS011;34299;50.820;4.548;2023-05-24T02:11:01;10.23;;;2.60;;
11582;SDS011;34299;50.820;4.548;2023-05-24T02:13:29;7.00;;;3.03;;
11582;SDS011;34299;50.820;4.548;2023-05-24T02:15:56;8.70;;;2.43;;
11582;SDS011;34299;50.820;4.548;2023-05-24T02:18:24;6.07;;;2.40;;
11582;SDS011;34299;50.820;4.548;2023-05-24T02:20:52;5.60;;;2.50;;
11582;SDS011;34299;50.820;4.548;2023-05-24T02:23:19;9.37;;;2.80;;
11582;SDS011;34299;50.820;4.548;2023-05-24T02:25:46;9.60;;;2.77;;
11582;SDS011;34299;50.820;4.548;2023-05-24T02:28:13;8.63;;;2.40;;
11582;SDS011;34299;50.820;4.548;2023-05-24T02:30:40;7.03;;;2.50;;
11582;SDS011;34299;50.820;4.548;2023-05-24T02:33:08;8.37;;;3.10;;
11582;SDS011;34299;50.820;4.548;2023-05-24T02:35:37;8.67;;;3.07;;
11582;SDS011;34299;50.820;4.548;2023-05-24T02:38:05;12.40;;;3.57;;
11582;SDS011;34299;50.820;4.548;2023-05-24T02:40:33;6.47;;;4.80;;
11582;SDS011;34299;50.820;4.548;2023-05-24T02:43:01;6.27;;;2.40;;
11582;SDS011;34299;50.820;4.548;2023-05-24T02:45:28;6.70;;;2.67;;
11582;SDS011;34299;50.820;4.548;2023-05-24T02:47:55;8.80;;;2.73;;
11582;SDS011;34299;50.820;4.548;2023-05-24T02:50:22;6.90;;;2.67;;
11582;SDS011;34299;50.820;4.548;2023-05-24T02:52:51;6.77;;;2.57;;
11582;SDS011;34299;50.820;4.548;2023-05-24T02:55:18;7.40;;;2.50;;
11582;SDS011;34299;50.820;4.548;2023-05-24T02:57:45;9.57;;;2.80;;
11582;SDS011;34299;50.820;4.548;2023-05-24T03:00:13;8.40;;;2.73;;
11582;SDS011;34299;50.820;4.548;2023-05-24T03:02:40;6.10;;;2.53;;
11582;SDS011;34299;50.820;4.548;2023-05-24T03:05:08;5.43;;;2.07;;
11582;SDS011;34299;50.820;4.548;2023-05-24T03:07:35;13.37;;;3.10;;
11582;SDS011;34299;50.820;4.548;2023-05-24T03:10:04;9.50;;;3.03;;
11582;SDS011;34299;50.820;4.548;2023-05-24T03:12:31;7.20;;;3.67;;
11582;SDS011;34299;50.820;4.548;2023-05-24T03:14:59;6.70;;;2.37;;
11582;SDS011;34299;50.820;4.548;2023-05-24T03:17:26;5.53;;;2.77;;
11582;SDS011;34299;50.820;4.548;2023-05-24T03:19:53;8.10;;;3.17;;
11582;SDS011;34299;50.820;4.548;2023-05-24T03:22:20;3.90;;;2.43;;
11582;SDS011;34299;50.820;4.548;2023-05-24T03:24:47;8.93;;;2.53;;
11582;SDS011;34299;50.820;4.548;2023-05-24T03:27:16;5.70;;;2.50;;
11582;SDS011;34299;50.820;4.548;2023-05-24T03:29:43;7.60;;;2.73;;
11582;SDS011;34299;50.820;4.548;2023-05-24T03:32:10;7.70;;;2.57;;
11582;SDS011;34299;50.820;4.548;2023-05-24T03:34:37;5.77;;;2.40;;
11582;SDS011;34299;50.820;4.548;2023-05-24T03:37:05;8.73;;;2.60;;
11582;SDS011;34299;50.820;4.548;2023-05-24T03:39:32;6.80;;;2.53;;
11582;SDS011;34299;50.820;4.548;2023-05-24T03:41:59;10.23;;;2.90;;
11582;SDS011;34299;50.820;4.548;2023-05-24T03:44:28;7.60;;;2.60;;
11582;SDS011;34299;50.820;4.548;2023-05-24T03:46:55;11.03;;;3.30;;
11582;SDS011;34299;50.820;4.548;2023-05-24T03:49:22;5.07;;;2.53;;
11582;SDS011;34299;50.820;4.548;2023-05-24T03:51:49;3.53;;;2.20;;
11582;SDS011;34299;50.820;4.548;2023-05-24T03:54:16;6.33;;;2.97;;
11582;SDS011;34299;50.820;4.548;2023-05-24T03:56:44;8.93;;;2.50;;
11582;SDS011;34299;50.820;4.548;2023-05-24T03:59:11;6.67;;;2.60;;
11582;SDS011;34299;50.820;4.548;2023-05-24T04:01:39;7.27;;;2.47;;
11582;SDS011;34299;50.820;4.548;2023-05-24T04:04:07;6.23;;;2.40;;
11582;SDS011;34299;50.820;4.548;2023-05-24T04:06:34;9.20;;;3.13;;
11582;SDS011;34299;50.820;4.548;2023-05-24T04:09:02;4.10;;;2.57;;
11582;SDS011;34299;50.820;4.548;2023-05-24T04:11:30;9.27;;;2.43;;
11582;SDS011;34299;50.820;4.548;2023-05-24T04:13:57;8.77;;;2.50;;
11582;SDS011;34299;50.820;4.548;2023-05-24T04:16:25;8.13;;;2.77;;
11582;SDS011;34299;50.820;4.548;2023-05-24T04:18:54;6.10;;;2.53;;
11582;SDS011;34299;50.820;4.548;2023-05-24T04:21:21;6.43;;;3.20;;
11582;SDS011;34299;50.820;4.548;2023-05-24T04:23:48;14.20;;;2.93;;
11582;SDS011;34299;50.820;4.548;2023-05-24T04:26:16;8.07;;;2.77;;
11582;SDS011;34299;50.820;4.548;2023-05-24T04:28:43;5.07;;;2.50;;
11582;SDS011;34299;50.820;4.548;2023-05-24T04:31:10;10.73;;;3.40;;
11582;SDS011;34299;50.820;4.548;2023-05-24T04:33:39;6.33;;;3.57;;
11582;SDS011;34299;50.820;4.548;2023-05-24T04:36:08;9.30;;;3.20;;
11582;SDS011;34299;50.820;4.548;2023-05-24T04:38:37;6.17;;;2.20;;
11582;SDS011;34299;50.820;4.548;2023-05-24T04:41:05;3.60;;;1.77;;
11582;SDS011;34299;50.820;4.548;2023-05-24T04:43:32;2.43;;;1.30;;
11582;SDS011;34299;50.820;4.548;2023-05-24T04:45:59;6.43;;;1.90;;
11582;SDS011;34299;50.820;4.548;2023-05-24T04:48:27;11.37;;;2.07;;
11582;SDS011;34299;50.820;4.548;2023-05-24T04:50:54;5.67;;;2.13;;
11582;SDS011;34299;50.820;4.548;2023-05-24T04:53:23;5.57;;;2.67;;
11582;SDS011;34299;50.820;4.548;2023-05-24T04:55:51;5.43;;;2.07;;
11582;SDS011;34299;50.820;4.548;2023-05-24T04:58:18;5.57;;;2.50;;
11582;SDS011;34299;50.820;4.548;2023-05-24T05:00:45;5.13;;;2.43;;
11582;SDS011;34299;50.820;4.548;2023-05-24T05:03:13;5.93;;;2.57;;
11582;SDS011;34299;50.820;4.548;2023-05-24T05:05:40;6.73;;;2.30;;
11582;SDS011;34299;50.820;4.548;2023-05-24T05:08:08;7.67;;;2.00;;
11582;SDS011;34299;50.820;4.548;2023-05-24T05:10:37;7.27;;;2.53;;
11582;SDS011;34299;50.820;4.548;2023-05-24T05:13:04;6.17;;;2.27;;
11582;SDS011;34299;50.820;4.548;2023-05-24T05:15:31;4.83;;;2.30;;
11582;SDS011;34299;50.820;4.548;2023-05-24T05:17:58;4.13;;;2.07;;
11582;SDS011;34299;50.820;4.548;2023-05-24T05:20:25;8.23;;;2.50;;
11582;SDS011;34299;50.820;4.548;2023-05-24T05:22:53;7.77;;;2.27;;
11582;SDS011;34299;50.820;4.548;2023-05-24T05:25:20;7.83;;;3.20;;
11582;SDS011;34299;50.820;4.548;2023-05-24T05:27:48;7.20;;;2.53;;
11582;SDS011;34299;50.820;4.548;2023-05-24T05:30:16;9.37;;;2.83;;
11582;SDS011;34299;50.820;4.548;2023-05-24T05:32:43;7.83;;;3.13;;
11582;SDS011;34299;50.820;4.548;2023-05-24T05:35:10;14.40;;;3.67;;
11582;SDS011;34299;50.820;4.548;2023-05-24T05:37:37;10.57;;;3.43;;
11582;SDS011;34299;50.820;4.548;2023-05-24T05:40:05;6.43;;;3.23;;
11582;SDS011;34299;50.820;4.548;2023-05-24T05:42:32;11.67;;;3.97;;
11582;SDS011;34299;50.820;4.548;2023-05-24T05:45:01;11.20;;;4.20;;
11582;SDS011;34299;50.820;4.548;2023-05-24T05:47:28;8.33;;;3.57;;
11582;SDS011;34299;50.820;4.548;2023-05-24T05:49:55;5.33;;;3.43;;
11582;SDS011;34299;50.820;4.548;2023-05-24T05:52:23;10.30;;;3.90;;
11582;SDS011;34299;50.820;4.548;2023-05-24T05:54:50;9.13;;;4.17;;
11582;SDS011;34299;50.820;4.548;2023-05-24T05:57:18;17.30;;;4.90;;
11582;SDS011;34299;50.820;4.548;2023-05-24T05:59:48;13.37;;;3.60;;
11582;SDS011;34299;50.820;4.548;2023-05-24T06:02:16;7.97;;;3.83;;
11582;SDS011;34299;50.820;4.548;2023-05-24T06:04:44;11.53;;;4.70;;
11582;SDS011;34299;50.820;4.548;2023-05-24T06:07:11;14.37;;;3.17;;
11582;SDS011;34299;50.820;4.548;2023-05-24T06:09:38;8.70;;;3.50;;
11582;SDS011;34299;50.820;4.548;2023-05-24T06:12:06;9.23;;;3.57;;
11582;SDS011;34299;50.820;4.548;2023-05-24T06:14:33;9.80;;;4.03;;
11582;SDS011;34299;50.820;4.548;2023-05-24T06:17:02;13.07;;;3.40;;
11582;SDS011;34299;50.820;4.548;2023-05-24T06:19:31;9.57;;;2.63;;
11582;SDS011;34299;50.820;4.548;2023-05-24T06:21:58;6.07;;;2.73;;
11582;SDS011;34299;50.820;4.548;2023-05-24T06:24:26;9.37;;;2.80;;
11582;SDS011;34299;50.820;4.548;2023-05-24T06:26:53;9.33;;;2.97;;
11582;SDS011;34299;50.820;4.548;2023-05-24T06:29:20;13.17;;;3.00;;
11582;SDS011;34299;50.820;4.548;2023-05-24T06:31:49;7.53;;;2.23;;
11582;SDS011;34299;50.820;4.548;2023-05-24T06:34:16;10.83;;;2.17;;
11582;SDS011;34299;50.820;4.548;2023-05-24T06:36:46;4.80;;;2.73;;
11582;SDS011;34299;50.820;4.548;2023-05-24T06:39:15;7.97;;;1.93;;
11582;SDS011;34299;50.820;4.548;2023-05-24T06:41:43;10.27;;;2.53;;
11582;SDS011;34299;50.820;4.548;2023-05-24T06:44:11;4.80;;;1.60;;
11582;SDS011;34299;50.820;4.548;2023-05-24T06:46:38;8.37;;;2.10;;
11582;SDS011;34299;50.820;4.548;2023-05-24T06:49:05;8.50;;;2.30;;
11582;SDS011;34299;50.820;4.548;2023-05-24T06:51:33;13.30;;;2.57;;
11582;SDS011;34299;50.820;4.548;2023-05-24T06:54:02;7.37;;;2.57;;
11582;SDS011;34299;50.820;4.548;2023-05-24T06:56:29;4.43;;;1.97;;
11582;SDS011;34299;50.820;4.548;2023-05-24T06:58:57;9.20;;;2.60;;
11582;SDS011;34299;50.820;4.548;2023-05-24T07:01:24;7.67;;;2.27;;
11582;SDS011;34299;50.820;4.548;2023-05-24T07:03:53;11.47;;;2.37;;
11582;SDS011;34299;50.820;4.548;2023-05-24T07:06:20;8.17;;;2.57;;
11582;SDS011;34299;50.820;4.548;2023-05-24T07:08:47;6.23;;;2.33;;
11582;SDS011;34299;50.820;4.548;2023-05-24T07:11:16;7.60;;;2.30;;
11582;SDS011;34299;50.820;4.548;2023-05-24T07:13:43;9.20;;;3.27;;
11582;SDS011;34299;50.820;4.548;2023-05-24T07:16:10;6.37;;;2.50;;
11582;SDS011;34299;50.820;4.548;2023-05-24T07:18:37;8.43;;;2.93;;
11582;SDS011;34299;50.820;4.548;2023-05-24T07:21:05;5.33;;;2.10;;
11582;SDS011;34299;50.820;4.548;2023-05-24T07:23:33;8.30;;;2.50;;
11582;SDS011;34299;50.820;4.548;2023-05-24T07:26:01;10.50;;;2.40;;
11582;SDS011;34299;50.820;4.548;2023-05-24T07:28:29;8.83;;;3.00;;
11582;SDS011;34299;50.820;4.548;2023-05-24T07:30:57;10.73;;;2.50;;
11582;SDS011;34299;50.820;4.548;2023-05-24T07:33:24;9.43;;;2.50;;
11582;SDS011;34299;50.820;4.548;2023-05-24T07:35:51;8.10;;;2.47;;
11582;SDS011;34299;50.820;4.548;2023-05-24T07:38:18;9.07;;;2.97;;
11582;SDS011;34299;50.820;4.548;2023-05-24T07:40:46;10.53;;;2.40;;
11582;SDS011;34299;50.820;4.548;2023-05-24T07:43:13;8.83;;;3.00;;
11582;SDS011;34299;50.820;4.548;2023-05-24T07:45:42;8.27;;;2.03;;
11582;SDS011;34299;50.820;4.548;2023-05-24T07:48:09;9.53;;;2.30;;
11582;SDS011;34299;50.820;4.548;2023-05-24T07:50:37;5.47;;;2.07;;
11582;SDS011;34299;50.820;4.548;2023-05-24T07:53:04;11.40;;;1.93;;
11582;SDS011;34299;50.820;4.548;2023-05-24T07:55:31;6.47;;;2.17;;
11582;SDS011;34299;50.820;4.548;2023-05-24T07:57:58;5.23;;;1.80;;
11582;SDS011;34299;50.820;4.548;2023-05-24T08:00:26;7.80;;;2.07;;
11582;SDS011;34299;50.820;4.548;2023-05-24T08:02:55;5.07;;;2.30;;
11582;SDS011;34299;50.820;4.548;2023-05-24T08:05:22;10.00;;;2.70;;
11582;SDS011;34299;50.820;4.548;2023-05-24T08:07:50;6.87;;;1.90;;
11582;SDS011;34299;50.820;4.548;2023-05-24T08:10:17;11.13;;;2.40;;
11582;SDS011;34299;50.820;4.548;2023-05-24T08:12:44;7.40;;;2.17;;
11582;SDS011;34299;50.820;4.548;2023-05-24T08:15:14;6.83;;;2.27;;
11582;SDS011;34299;50.820;4.548;2023-05-24T08:17:41;10.27;;;2.20;;
11582;SDS011;34299;50.820;4.548;2023-05-24T08:20:10;6.17;;;1.90;;
11582;SDS011;34299;50.820;4.548;2023-05-24T08:22:39;8.27;;;2.60;;
11582;SDS011;34299;50.820;4.548;2023-05-24T08:25:07;8.17;;;2.20;;
11582;SDS011;34299;50.820;4.548;2023-05-24T08:27:34;8.17;;;2.00;;
11582;SDS011;34299;50.820;4.548;2023-05-24T08:30:02;6.03;;;2.10;;
11582;SDS011;34299;50.820;4.548;2023-05-24T08:32:29;8.50;;;2.70;;
11582;SDS011;34299;50.820;4.548;2023-05-24T08:34:57;8.03;;;2.27;;
11582;SDS011;34299;50.820;4.548;2023-05-24T08:37:26;8.60;;;2.40;;
11582;SDS011;34299;50.820;4.548;2023-05-24T08:39:55;8.73;;;2.03;;
11582;SDS011;34299;50.820;4.548;2023-05-24T08:42:22;9.43;;;2.23;;
11582;SDS011;34299;50.820;4.548;2023-05-24T08:44:51;8.73;;;2.23;;
11582;SDS011;34299;50.820;4.548;2023-05-24T08:47:19;4.50;;;2.20;;
11582;SDS011;34299;50.820;4.548;2023-05-24T08:49:46;4.60;;;2.07;;
11582;SDS011;34299;50.820;4.548;2023-05-24T08:52:14;3.77;;;2.27;;
11582;SDS011;34299;50.820;4.548;2023-05-24T08:54:43;6.27;;;2.63;;
11582;SDS011;34299;50.820;4.548;2023-05-24T08:57:10;7.70;;;2.50;;
11582;SDS011;34299;50.820;4.548;2023-05-24T08:59:38;4.13;;;1.87;;
11582;SDS011;34299;50.820;4.548;2023-05-24T09:02:06;10.63;;;2.80;;
11582;SDS011;34299;50.820;4.548;2023-05-24T09:04:35;6.43;;;2.33;;
11582;SDS011;34299;50.820;4.548;2023-05-24T09:07:02;7.37;;;2.50;;
11582;SDS011;34299;50.820;4.548;2023-05-24T09:09:29;4.73;;;1.80;;
11582;SDS011;34299;50.820;4.548;2023-05-24T09:12:00;7.20;;;2.10;;
11582;SDS011;34299;50.820;4.548;2023-05-24T09:14:29;5.47;;;2.43;;
11582;SDS011;34299;50.820;4.548;2023-05-24T09:16:56;7.27;;;2.47;;
11582;SDS011;34299;50.820;4.548;2023-05-24T09:19:24;6.10;;;2.37;;
11582;SDS011;34299;50.820;4.548;2023-05-24T09:21:52;6.10;;;1.93;;
11582;SDS011;34299;50.820;4.548;2023-05-24T09:24:19;4.30;;;2.30;;
11582;SDS011;34299;50.820;4.548;2023-05-24T09:26:49;5.73;;;2.13;;
11582;SDS011;34299;50.820;4.548;2023-05-24T09:29:21;3.93;;;1.37;;
11582;SDS011;34299;50.820;4.548;2023-05-24T09:31:50;5.97;;;1.80;;
11582;SDS011;34299;50.820;4.548;2023-05-24T09:34:22;4.50;;;2.33;;
11582;SDS011;34299;50.820;4.548;2023-05-24T09:36:50;7.27;;;2.20;;
11582;SDS011;34299;50.820;4.548;2023-05-24T09:39:19;8.40;;;2.27;;
11582;SDS011;34299;50.820;4.548;2023-05-24T09:41:51;13.67;;;2.67;;
11582;SDS011;34299;50.820;4.548;2023-05-24T09:44:24;5.87;;;2.17;;
11582;SDS011;34299;50.820;4.548;2023-05-24T09:46:52;6.57;;;2.20;;
11582;SDS011;34299;50.820;4.548;2023-05-24T09:49:19;5.63;;;2.93;;
11582;SDS011;34299;50.820;4.548;2023-05-24T09:51:47;7.30;;;2.63;;
11582;SDS011;34299;50.820;4.548;2023-05-24T09:54:14;6.43;;;2.47;;
11582;SDS011;34299;50.820;4.548;2023-05-24T09:56:42;7.03;;;2.00;;
11582;SDS011;34299;50.820;4.548;2023-05-24T09:59:12;5.93;;;2.20;;
11582;SDS011;34299;50.820;4.548;2023-05-24T10:01:41;6.80;;;2.70;;
11582;SDS011;34299;50.820;4.548;2023-05-24T10:04:08;6.83;;;2.70;;
11582;SDS011;34299;50.820;4.548;2023-05-24T10:06:35;9.53;;;2.40;;
11582;SDS011;34299;50.820;4.548;2023-05-24T10:09:03;9.83;;;2.73;;
11582;SDS011;34299;50.820;4.548;2023-05-24T10:11:32;8.20;;;2.70;;
11582;SDS011;34299;50.820;4.548;2023-05-24T10:14:00;5.40;;;2.67;;
11582;SDS011;34299;50.820;4.548;2023-05-24T10:16:28;6.00;;;2.77;;
11582;SDS011;34299;50.820;4.548;2023-05-24T10:18:57;16.10;;;3.47;;
11582;SDS011;34299;50.820;4.548;2023-05-24T10:21:24;5.27;;;2.33;;
11582;SDS011;34299;50.820;4.548;2023-05-24T10:23:55;7.13;;;2.77;;
11582;SDS011;34299;50.820;4.548;2023-05-24T10:26:23;7.07;;;2.30;;
11582;SDS011;34299;50.820;4.548;2023-05-24T10:28:53;6.23;;;2.80;;
11582;SDS011;34299;50.820;4.548;2023-05-24T10:31:21;6.63;;;3.27;;
11582;SDS011;34299;50.820;4.548;2023-05-24T10:33:50;5.70;;;2.53;;
11582;SDS011;34299;50.820;4.548;2023-05-24T10:36:19;7.70;;;3.53;;
11582;SDS011;34299;50.820;4.548;2023-05-24T10:38:47;8.73;;;3.03;;
11582;SDS011;34299;50.820;4.548;2023-05-24T10:41:14;8.40;;;2.70;;
11582;SDS011;34299;50.820;4.548;2023-05-24T10:43:44;9.23;;;3.13;;
11582;SDS011;34299;50.820;4.548;2023-05-24T10:46:13;7.77;;;3.00;;
11582;SDS011;34299;50.820;4.548;2023-05-24T10:48:40;7.17;;;3.27;;
11582;SDS011;34299;50.820;4.548;2023-05-24T10:53:54;6.97;;;2.80;;
11582;SDS011;34299;50.820;4.548;2023-05-24T10:56:23;8.27;;;3.40;;
11582;SDS011;34299;50.820;4.548;2023-05-24T10:58:59;9.97;;;3.13;;
11582;SDS011;34299;50.820;4.548;2023-05-24T11:01:30;8.60;;;2.93;;
11582;SDS011;34299;50.820;4.548;2023-05-24T11:04:05;9.10;;;3.53;;
11582;SDS011;34299;50.820;4.548;2023-05-24T11:06:45;8.50;;;3.77;;
11582;SDS011;34299;50.820;4.548;2023-05-24T11:09:15;5.57;;;2.83;;
11582;SDS011;34299;50.820;4.548;2023-05-24T11:11:44;13.27;;;3.97;;
11582;SDS011;34299;50.820;4.548;2023-05-24T11:14:13;12.93;;;4.27;;
11582;SDS011;34299;50.820;4.548;2023-05-24T11:16:45;9.47;;;3.90;;
11582;SDS011;34299;50.820;4.548;2023-05-24T11:19:14;12.77;;;4.77;;
11582;SDS011;34299;50.820;4.548;2023-05-24T11:21:42;15.00;;;5.30;;
11582;SDS011;34299;50.820;4.548;2023-05-24T11:24:10;11.40;;;4.93;;
11582;SDS011;34299;50.820;4.548;2023-05-24T11:26:39;12.27;;;4.83;;
11582;SDS011;34299;50.820;4.548;2023-05-24T11:29:06;17.10;;;5.07;;
11582;SDS011;34299;50.820;4.548;2023-05-24T11:31:33;8.87;;;3.80;;
11582;SDS011;34299;50.820;4.548;2023-05-24T11:34:03;10.87;;;3.63;;
11582;SDS011;34299;50.820;4.548;2023-05-24T11:36:31;8.23;;;4.03;;
11582;SDS011;34299;50.820;4.548;2023-05-24T11:39:00;8.77;;;4.07;;
11582;SDS011;34299;50.820;4.548;2023-05-24T11:41:34;10.13;;;4.47;;
11582;SDS011;34299;50.820;4.548;2023-05-24T11:44:03;7.97;;;4.20;;
11582;SDS011;34299;50.820;4.548;2023-05-24T11:46:31;8.53;;;4.80;;
11582;SDS011;34299;50.820;4.548;2023-05-24T11:48:58;14.60;;;5.70;;
11582;SDS011;34299;50.820;4.548;2023-05-24T11:51:26;11.63;;;4.70;;
11582;SDS011;34299;50.820;4.548;2023-05-24T11:53:54;10.13;;;4.47;;
11582;SDS011;34299;50.820;4.548;2023-05-24T11:56:21;14.20;;;5.30;;
11582;SDS011;34299;50.820;4.548;2023-05-24T11:58:49;10.03;;;4.67;;
11582;SDS011;34299;50.820;4.548;2023-05-24T12:01:24;11.17;;;5.10;;
11582;SDS011;34299;50.820;4.548;2023-05-24T12:03:52;7.50;;;4.30;;
11582;SDS011;34299;50.820;4.548;2023-05-24T12:06:20;8.13;;;4.40;;
11582;SDS011;34299;50.820;4.548;2023-05-24T12:08:47;9.67;;;3.87;;
11582;SDS011;34299;50.820;4.548;2023-05-24T12:11:15;9.43;;;5.10;;
11582;SDS011;34299;50.820;4.548;2023-05-24T12:13:42;9.43;;;4.67;;
11582;SDS011;34299;50.820;4.548;2023-05-24T12:16:10;11.53;;;4.77;;
11582;SDS011;34299;50.820;4.548;2023-05-24T12:18:39;13.43;;;4.20;;
11582;SDS011;34299;50.820;4.548;2023-05-24T12:21:08;10.63;;;4.00;;
11582;SDS011;34299;50.820;4.548;2023-05-24T12:23:37;8.33;;;3.57;;
11582;SDS011;34299;50.820;4.548;2023-05-24T12:26:04;13.90;;;4.90;;
11582;SDS011;34299;50.820;4.548;2023-05-24T12:28:31;10.50;;;4.70;;
11582;SDS011;34299;50.820;4.548;2023-05-24T12:31:01;12.03;;;4.90;;
11582;SDS011;34299;50.820;4.548;2023-05-24T12:33:28;9.63;;;4.10;;
11582;SDS011;34299;50.820;4.548;2023-05-24T12:35:57;6.70;;;3.73;;
11582;SDS011;34299;50.820;4.548;2023-05-24T12:38:24;7.93;;;3.97;;
11582;SDS011;34299;50.820;4.548;2023-05-24T12:40:52;7.23;;;4.17;;
11582;SDS011;34299;50.820;4.548;2023-05-24T12:43:19;9.50;;;4.03;;
11582;SDS011;34299;50.820;4.548;2023-05-24T12:45:47;11.90;;;5.13;;
11582;SDS011;34299;50.820;4.548;2023-05-24T12:48:14;13.57;;;4.60;;
11582;SDS011;34299;50.820;4.548;2023-05-24T12:50:41;7.70;;;3.47;;
11582;SDS011;34299;50.820;4.548;2023-05-24T12:53:10;8.20;;;3.77;;
11582;SDS011;34299;50.820;4.548;2023-05-24T12:55:38;8.20;;;4.90;;
11582;SDS011;34299;50.820;4.548;2023-05-24T12:58:06;9.23;;;3.67;;
11582;SDS011;34299;50.820;4.548;2023-05-24T13:00:34;8.87;;;3.80;;
11582;SDS011;34299;50.820;4.548;2023-05-24T13:03:02;8.70;;;3.50;;
11582;SDS011;34299;50.820;4.548;2023-05-24T13:05:29;8.80;;;3.60;;
11582;SDS011;34299;50.820;4.548;2023-05-24T13:07:56;8.03;;;3.40;;
11582;SDS011;34299;50.820;4.548;2023-05-24T13:10:25;8.63;;;3.33;;
11582;SDS011;34299;50.820;4.548;2023-05-24T13:12:52;12.93;;;3.70;;
11582;SDS011;34299;50.820;4.548;2023-05-24T13:15:20;12.43;;;4.50;;
11582;SDS011;34299;50.820;4.548;2023-05-24T13:17:48;9.30;;;3.77;;
11582;SDS011;34299;50.820;4.548;2023-05-24T13:20:15;8.80;;;3.53;;
11582;SDS011;34299;50.820;4.548;2023-05-24T13:22:46;10.67;;;3.63;;
11582;SDS011;34299;50.820;4.548;2023-05-24T13:25:13;13.30;;;4.00;;
11582;SDS011;34299;50.820;4.548;2023-05-24T13:27:42;7.13;;;3.30;;
11582;SDS011;34299;50.820;4.548;2023-05-24T13:30:10;7.63;;;3.73;;
11582;SDS011;34299;50.820;4.548;2023-05-24T13:32:37;8.83;;;3.40;;
11582;SDS011;34299;50.820;4.548;2023-05-24T13:35:05;9.67;;;3.60;;
11582;SDS011;34299;50.820;4.548;2023-05-24T13:37:32;10.53;;;3.87;;
11582;SDS011;34299;50.820;4.548;2023-05-24T13:39:59;9.63;;;4.13;;
11582;SDS011;34299;50.820;4.548;2023-05-24T13:42:28;9.63;;;3.80;;
11582;SDS011;34299;50.820;4.548;2023-05-24T13:44:56;8.33;;;3.83;;
11582;SDS011;34299;50.820;4.548;2023-05-24T13:47:24;8.63;;;3.50;;
11582;SDS011;34299;50.820;4.548;2023-05-24T13:49:51;7.47;;;3.57;;
11582;SDS011;34299;50.820;4.548;2023-05-24T13:52:18;11.23;;;3.43;;
11582;SDS011;34299;50.820;4.548;2023-05-24T13:54:45;16.47;;;4.00;;
11582;SDS011;34299;50.820;4.548;2023-05-24T13:57:13;13.17;;;4.63;;
11582;SDS011;34299;50.820;4.548;2023-05-24T13:59:40;10.63;;;4.20;;
11582;SDS011;34299;50.820;4.548;2023-05-24T14:02:09;5.80;;;3.37;;
11582;SDS011;34299;50.820;4.548;2023-05-24T14:04:36;9.90;;;3.47;;
11582;SDS011;34299;50.820;4.548;2023-05-24T14:07:03;9.50;;;3.50;;
11582;SDS011;34299;50.820;4.548;2023-05-24T14:09:32;9.00;;;3.03;;
11582;SDS011;34299;50.820;4.548;2023-05-24T14:12:00;6.57;;;2.70;;
11582;SDS011;34299;50.820;4.548;2023-05-24T14:14:28;12.83;;;3.53;;
11582;SDS011;34299;50.820;4.548;2023-05-24T14:16:55;6.57;;;3.13;;
11582;SDS011;34299;50.820;4.548;2023-05-24T14:19:24;5.50;;;2.90;;
11582;SDS011;34299;50.820;4.548;2023-05-24T14:21:51;6.70;;;3.50;;
11582;SDS011;34299;50.820;4.548;2023-05-24T14:24:18;6.93;;;3.10;;
11582;SDS011;34299;50.820;4.548;2023-05-24T14:26:46;6.07;;;3.27;;
11582;SDS011;34299;50.820;4.548;2023-05-24T14:29:13;7.33;;;2.80;;
11582;SDS011;34299;50.820;4.548;2023-05-24T14:31:40;6.20;;;2.60;;
11582;SDS011;34299;50.820;4.548;2023-05-24T14:34:08;16.80;;;3.20;;
11582;SDS011;34299;50.820;4.548;2023-05-24T14:36:37;8.97;;;3.27;;
11582;SDS011;34299;50.820;4.548;2023-05-24T14:39:05;9.63;;;4.00;;
11582;SDS011;34299;50.820;4.548;2023-05-24T14:41:33;14.17;;;3.47;;
11582;SDS011;34299;50.820;4.548;2023-05-24T14:44:00;7.63;;;2.90;;
11582;SDS011;34299;50.820;4.548;2023-05-24T14:46:27;7.47;;;3.30;;
11582;SDS011;34299;50.820;4.548;2023-05-24T14:48:54;7.33;;;2.73;;
11582;SDS011;34299;50.820;4.548;2023-05-24T14:51:22;6.70;;;3.53;;
11582;SDS011;34299;50.820;4.548;2023-05-24T14:53:50;7.03;;;3.03;;